sensor_id;sensor_type;location;lat;lon;timestamp;P1;durP1;ratioP1;P2;durP2;ratioP2
11488;SDS011;5801;50.804;12.638;2023-03-19T00:01:51;8.10;;;4.35;;
11488;SDS011;5801;50.804;12.638;2023-03-19T00:04:17;7.38;;;4.10;;
11488;SDS011;5801;50.804;12.638;2023-03-19T00:06:42;8.65;;;3.70;;
11488;SDS011;5801;50.804;12.638;2023-03-19T00:09:09;7.90;;;3.83;;
11488;SDS011;5801;50.804;12.638;2023-03-19T00:11:35;9.73;;;4.53;;
11488;SDS011;5801;50.804;12.638;2023-03-19T00:14:01;14.05;;;4.38;;
11488;SDS011;5801;50.804;12.638;2023-03-19T00:16:26;10.25;;;4.50;;
11488;SDS011;5801;50.804;12.638;2023-03-19T00:18:52;7.75;;;4.53;;
11488;SDS011;5801;50.804;12.638;2023-03-19T00:21:19;12.63;;;5.32;;
11488;SDS011;5801;50.804;12.638;2023-03-19T00:23:45;9.50;;;5.10;;
11488;SDS011;5801;50.804;12.638;2023-03-19T00:26:11;7.22;;;4.15;;
11488;SDS011;5801;50.804;12.638;2023-03-19T00:28:36;10.57;;;4.68;;
11488;SDS011;5801;50.804;12.638;2023-03-19T00:31:05;6.45;;;3.95;;
11488;SDS011;5801;50.804;12.638;2023-03-19T00:33:32;10.13;;;5.28;;
11488;SDS011;5801;50.804;12.638;2023-03-19T00:35:57;10.77;;;4.47;;
11488;SDS011;5801;50.804;12.638;2023-03-19T00:38:23;8.98;;;4.68;;
11488;SDS011;5801;50.804;12.638;2023-03-19T00:40:49;8.18;;;4.82;;
11488;SDS011;5801;50.804;12.638;2023-03-19T00:43:14;11.57;;;5.72;;
11488;SDS011;5801;50.804;12.638;2023-03-19T00:45:40;13.73;;;4.72;;
11488;SDS011;5801;50.804;12.638;2023-03-19T00:48:05;7.60;;;4.80;;
11488;SDS011;5801;50.804;12.638;2023-03-19T00:50:32;6.70;;;4.55;;
11488;SDS011;5801;50.804;12.638;2023-03-19T00:52:57;5.65;;;4.20;;
11488;SDS011;5801;50.804;12.638;2023-03-19T00:55:23;8.98;;;4.57;;
11488;SDS011;5801;50.804;12.638;2023-03-19T00:57:51;7.38;;;4.32;;
11488;SDS011;5801;50.804;12.638;2023-03-19T01:00:17;6.20;;;4.38;;
11488;SDS011;5801;50.804;12.638;2023-03-19T01:02:43;8.18;;;4.97;;
11488;SDS011;5801;50.804;12.638;2023-03-19T01:05:09;8.75;;;4.47;;
11488;SDS011;5801;50.804;12.638;2023-03-19T01:07:35;8.02;;;4.35;;
11488;SDS011;5801;50.804;12.638;2023-03-19T01:10:02;9.50;;;5.00;;
11488;SDS011;5801;50.804;12.638;2023-03-19T01:12:27;11.88;;;4.65;;
11488;SDS011;5801;50.804;12.638;2023-03-19T01:14:53;7.13;;;4.28;;
11488;SDS011;5801;50.804;12.638;2023-03-19T01:17:19;9.93;;;4.95;;
11488;SDS011;5801;50.804;12.638;2023-03-19T01:19:45;6.63;;;4.30;;
11488;SDS011;5801;50.804;12.638;2023-03-19T01:22:11;8.93;;;4.75;;
11488;SDS011;5801;50.804;12.638;2023-03-19T01:24:38;7.32;;;4.40;;
11488;SDS011;5801;50.804;12.638;2023-03-19T01:27:04;8.45;;;4.38;;
11488;SDS011;5801;50.804;12.638;2023-03-19T01:29:30;12.10;;;4.47;;
11488;SDS011;5801;50.804;12.638;2023-03-19T01:31:56;7.63;;;4.57;;
11488;SDS011;5801;50.804;12.638;2023-03-19T01:34:21;8.10;;;4.07;;
11488;SDS011;5801;50.804;12.638;2023-03-19T01:36:48;8.52;;;4.22;;
11488;SDS011;5801;50.804;12.638;2023-03-19T01:39:13;10.60;;;4.90;;
11488;SDS011;5801;50.804;12.638;2023-03-19T01:41:39;7.50;;;3.63;;
11488;SDS011;5801;50.804;12.638;2023-03-19T01:44:22;7.65;;;4.55;;
11488;SDS011;5801;50.804;12.638;2023-03-19T01:46:55;6.40;;;4.25;;
11488;SDS011;5801;50.804;12.638;2023-03-19T01:49:22;15.20;;;4.40;;
11488;SDS011;5801;50.804;12.638;2023-03-19T01:51:51;10.00;;;4.43;;
11488;SDS011;5801;50.804;12.638;2023-03-19T01:54:18;14.70;;;5.18;;
11488;SDS011;5801;50.804;12.638;2023-03-19T01:56:46;10.55;;;4.72;;
11488;SDS011;5801;50.804;12.638;2023-03-19T01:59:17;8.52;;;4.28;;
11488;SDS011;5801;50.804;12.638;2023-03-19T02:01:49;7.75;;;4.15;;
11488;SDS011;5801;50.804;12.638;2023-03-19T02:04:36;7.82;;;3.80;;
11488;SDS011;5801;50.804;12.638;2023-03-19T02:07:04;7.18;;;3.95;;
11488;SDS011;5801;50.804;12.638;2023-03-19T02:09:31;7.97;;;4.38;;
11488;SDS011;5801;50.804;12.638;2023-03-19T02:11:57;9.10;;;4.45;;
11488;SDS011;5801;50.804;12.638;2023-03-19T02:14:24;9.13;;;4.07;;
11488;SDS011;5801;50.804;12.638;2023-03-19T02:16:50;9.55;;;4.72;;
11488;SDS011;5801;50.804;12.638;2023-03-19T02:19:21;9.85;;;4.47;;
11488;SDS011;5801;50.804;12.638;2023-03-19T02:22:24;11.20;;;4.10;;
11488;SDS011;5801;50.804;12.638;2023-03-19T02:24:55;6.90;;;4.07;;
11488;SDS011;5801;50.804;12.638;2023-03-19T02:27:35;8.75;;;4.05;;
11488;SDS011;5801;50.804;12.638;2023-03-19T02:30:16;6.53;;;3.78;;
11488;SDS011;5801;50.804;12.638;2023-03-19T02:32:43;6.85;;;4.00;;
11488;SDS011;5801;50.804;12.638;2023-03-19T02:35:10;8.93;;;4.13;;
11488;SDS011;5801;50.804;12.638;2023-03-19T02:37:36;7.43;;;4.28;;
11488;SDS011;5801;50.804;12.638;2023-03-19T02:40:03;10.80;;;4.70;;
11488;SDS011;5801;50.804;12.638;2023-03-19T02:42:33;5.82;;;4.03;;
11488;SDS011;5801;50.804;12.638;2023-03-19T02:44:58;8.68;;;3.88;;
11488;SDS011;5801;50.804;12.638;2023-03-19T02:47:24;6.63;;;3.92;;
11488;SDS011;5801;50.804;12.638;2023-03-19T02:49:51;14.20;;;4.50;;
11488;SDS011;5801;50.804;12.638;2023-03-19T02:52:17;6.82;;;3.97;;
11488;SDS011;5801;50.804;12.638;2023-03-19T02:54:43;10.65;;;4.07;;
11488;SDS011;5801;50.804;12.638;2023-03-19T02:57:10;6.38;;;3.85;;
11488;SDS011;5801;50.804;12.638;2023-03-19T02:59:36;6.47;;;3.75;;
11488;SDS011;5801;50.804;12.638;2023-03-19T03:02:02;7.75;;;4.35;;
11488;SDS011;5801;50.804;12.638;2023-03-19T03:04:28;7.50;;;4.72;;
11488;SDS011;5801;50.804;12.638;2023-03-19T03:06:54;6.90;;;3.55;;
11488;SDS011;5801;50.804;12.638;2023-03-19T03:09:20;9.82;;;3.63;;
11488;SDS011;5801;50.804;12.638;2023-03-19T03:11:46;5.40;;;3.30;;
11488;SDS011;5801;50.804;12.638;2023-03-19T03:14:12;6.68;;;3.70;;
11488;SDS011;5801;50.804;12.638;2023-03-19T03:16:37;6.50;;;3.88;;
11488;SDS011;5801;50.804;12.638;2023-03-19T03:19:03;9.70;;;3.97;;
11488;SDS011;5801;50.804;12.638;2023-03-19T03:21:30;7.43;;;3.90;;
11488;SDS011;5801;50.804;12.638;2023-03-19T03:23:55;5.65;;;3.83;;
11488;SDS011;5801;50.804;12.638;2023-03-19T03:26:21;7.45;;;3.85;;
11488;SDS011;5801;50.804;12.638;2023-03-19T03:28:47;11.15;;;4.65;;
11488;SDS011;5801;50.804;12.638;2023-03-19T03:31:13;4.10;;;3.03;;
11488;SDS011;5801;50.804;12.638;2023-03-19T03:33:39;6.78;;;3.33;;
11488;SDS011;5801;50.804;12.638;2023-03-19T03:36:05;8.13;;;4.18;;
11488;SDS011;5801;50.804;12.638;2023-03-19T03:38:31;5.88;;;3.50;;
11488;SDS011;5801;50.804;12.638;2023-03-19T03:40:56;11.15;;;4.45;;
11488;SDS011;5801;50.804;12.638;2023-03-19T03:43:22;6.95;;;3.35;;
11488;SDS011;5801;50.804;12.638;2023-03-19T03:45:49;5.82;;;3.55;;
11488;SDS011;5801;50.804;12.638;2023-03-19T03:48:15;9.25;;;4.03;;
11488;SDS011;5801;50.804;12.638;2023-03-19T03:50:41;6.03;;;3.70;;
11488;SDS011;5801;50.804;12.638;2023-03-19T03:53:06;7.32;;;4.10;;
11488;SDS011;5801;50.804;12.638;2023-03-19T03:55:32;7.20;;;4.30;;
11488;SDS011;5801;50.804;12.638;2023-03-19T03:57:58;6.35;;;3.78;;
11488;SDS011;5801;50.804;12.638;2023-03-19T04:00:24;9.18;;;3.90;;
11488;SDS011;5801;50.804;12.638;2023-03-19T04:02:50;6.03;;;3.60;;
11488;SDS011;5801;50.804;12.638;2023-03-19T04:05:16;12.15;;;3.97;;
11488;SDS011;5801;50.804;12.638;2023-03-19T04:07:42;10.52;;;3.97;;
11488;SDS011;5801;50.804;12.638;2023-03-19T04:10:08;4.60;;;3.67;;
11488;SDS011;5801;50.804;12.638;2023-03-19T04:12:36;8.15;;;3.85;;
11488;SDS011;5801;50.804;12.638;2023-03-19T04:15:06;10.00;;;3.67;;
11488;SDS011;5801;50.804;12.638;2023-03-19T04:17:33;5.43;;;3.42;;
11488;SDS011;5801;50.804;12.638;2023-03-19T04:20:00;8.57;;;3.70;;
11488;SDS011;5801;50.804;12.638;2023-03-19T04:22:26;6.38;;;3.70;;
11488;SDS011;5801;50.804;12.638;2023-03-19T04:24:52;5.47;;;3.25;;
11488;SDS011;5801;50.804;12.638;2023-03-19T04:27:18;5.60;;;3.30;;
11488;SDS011;5801;50.804;12.638;2023-03-19T04:29:44;7.45;;;3.35;;
11488;SDS011;5801;50.804;12.638;2023-03-19T04:32:10;6.63;;;3.40;;
11488;SDS011;5801;50.804;12.638;2023-03-19T04:34:35;5.93;;;3.80;;
11488;SDS011;5801;50.804;12.638;2023-03-19T04:37:01;5.57;;;3.75;;
11488;SDS011;5801;50.804;12.638;2023-03-19T04:39:27;8.27;;;3.90;;
11488;SDS011;5801;50.804;12.638;2023-03-19T04:41:54;6.63;;;3.42;;
11488;SDS011;5801;50.804;12.638;2023-03-19T04:44:20;5.18;;;3.75;;
11488;SDS011;5801;50.804;12.638;2023-03-19T04:46:46;5.65;;;3.42;;
11488;SDS011;5801;50.804;12.638;2023-03-19T04:49:12;6.22;;;3.55;;
11488;SDS011;5801;50.804;12.638;2023-03-19T04:51:38;5.75;;;3.45;;
11488;SDS011;5801;50.804;12.638;2023-03-19T04:54:03;9.40;;;3.65;;
11488;SDS011;5801;50.804;12.638;2023-03-19T04:56:29;6.07;;;3.42;;
11488;SDS011;5801;50.804;12.638;2023-03-19T04:58:55;5.35;;;3.67;;
11488;SDS011;5801;50.804;12.638;2023-03-19T05:01:21;6.85;;;4.45;;
11488;SDS011;5801;50.804;12.638;2023-03-19T05:03:47;6.13;;;3.83;;
11488;SDS011;5801;50.804;12.638;2023-03-19T05:06:13;6.60;;;3.70;;
11488;SDS011;5801;50.804;12.638;2023-03-19T05:08:39;4.20;;;3.20;;
11488;SDS011;5801;50.804;12.638;2023-03-19T05:11:05;4.90;;;3.65;;
11488;SDS011;5801;50.804;12.638;2023-03-19T05:13:30;3.80;;;3.17;;
11488;SDS011;5801;50.804;12.638;2023-03-19T05:15:56;4.95;;;3.53;;
11488;SDS011;5801;50.804;12.638;2023-03-19T05:18:22;14.93;;;4.00;;
11488;SDS011;5801;50.804;12.638;2023-03-19T05:20:48;9.65;;;3.92;;
11488;SDS011;5801;50.804;12.638;2023-03-19T05:23:14;7.03;;;3.70;;
11488;SDS011;5801;50.804;12.638;2023-03-19T05:25:40;9.23;;;3.95;;
11488;SDS011;5801;50.804;12.638;2023-03-19T05:28:05;9.02;;;3.83;;
11488;SDS011;5801;50.804;12.638;2023-03-19T05:30:32;7.55;;;3.80;;
11488;SDS011;5801;50.804;12.638;2023-03-19T05:32:58;5.18;;;3.55;;
11488;SDS011;5801;50.804;12.638;2023-03-19T05:35:25;6.55;;;3.80;;
11488;SDS011;5801;50.804;12.638;2023-03-19T05:37:51;7.97;;;4.63;;
11488;SDS011;5801;50.804;12.638;2023-03-19T05:40:17;7.75;;;3.38;;
11488;SDS011;5801;50.804;12.638;2023-03-19T05:42:43;4.38;;;3.33;;
11488;SDS011;5801;50.804;12.638;2023-03-19T05:45:09;6.15;;;3.80;;
11488;SDS011;5801;50.804;12.638;2023-03-19T05:47:35;5.93;;;3.67;;
11488;SDS011;5801;50.804;12.638;2023-03-19T05:50:01;5.20;;;3.78;;
11488;SDS011;5801;50.804;12.638;2023-03-19T05:52:27;12.13;;;4.10;;
11488;SDS011;5801;50.804;12.638;2023-03-19T05:54:53;4.07;;;3.13;;
11488;SDS011;5801;50.804;12.638;2023-03-19T05:57:18;6.80;;;3.85;;
11488;SDS011;5801;50.804;12.638;2023-03-19T05:59:45;9.85;;;3.58;;
11488;SDS011;5801;50.804;12.638;2023-03-19T06:02:11;5.38;;;3.50;;
11488;SDS011;5801;50.804;12.638;2023-03-19T06:04:37;15.50;;;3.80;;
11488;SDS011;5801;50.804;12.638;2023-03-19T06:07:02;7.22;;;3.85;;
11488;SDS011;5801;50.804;12.638;2023-03-19T06:09:28;6.05;;;3.60;;
11488;SDS011;5801;50.804;12.638;2023-03-19T06:11:53;3.83;;;3.30;;
11488;SDS011;5801;50.804;12.638;2023-03-19T06:14:19;4.30;;;3.28;;
11488;SDS011;5801;50.804;12.638;2023-03-19T06:16:45;10.65;;;3.97;;
11488;SDS011;5801;50.804;12.638;2023-03-19T06:19:11;8.48;;;3.63;;
11488;SDS011;5801;50.804;12.638;2023-03-19T06:21:37;6.05;;;3.72;;
11488;SDS011;5801;50.804;12.638;2023-03-19T06:24:02;7.05;;;4.32;;
11488;SDS011;5801;50.804;12.638;2023-03-19T06:26:28;11.50;;;3.55;;
11488;SDS011;5801;50.804;12.638;2023-03-19T06:28:54;5.72;;;3.25;;
11488;SDS011;5801;50.804;12.638;2023-03-19T06:31:19;4.43;;;3.13;;
11488;SDS011;5801;50.804;12.638;2023-03-19T06:33:45;9.35;;;3.83;;
11488;SDS011;5801;50.804;12.638;2023-03-19T06:36:11;3.80;;;2.78;;
11488;SDS011;5801;50.804;12.638;2023-03-19T06:38:37;4.93;;;3.58;;
11488;SDS011;5801;50.804;12.638;2023-03-19T06:41:03;6.00;;;3.63;;
11488;SDS011;5801;50.804;12.638;2023-03-19T06:43:28;8.68;;;4.53;;
11488;SDS011;5801;50.804;12.638;2023-03-19T06:45:55;9.30;;;4.85;;
11488;SDS011;5801;50.804;12.638;2023-03-19T06:48:20;12.80;;;4.70;;
11488;SDS011;5801;50.804;12.638;2023-03-19T06:50:46;7.68;;;4.47;;
11488;SDS011;5801;50.804;12.638;2023-03-19T06:53:12;6.60;;;4.85;;
11488;SDS011;5801;50.804;12.638;2023-03-19T06:55:38;8.43;;;4.43;;
11488;SDS011;5801;50.804;12.638;2023-03-19T06:58:04;7.13;;;4.82;;
11488;SDS011;5801;50.804;12.638;2023-03-19T07:00:30;12.23;;;5.00;;
11488;SDS011;5801;50.804;12.638;2023-03-19T07:02:56;8.23;;;4.97;;
11488;SDS011;5801;50.804;12.638;2023-03-19T07:05:22;6.78;;;4.53;;
11488;SDS011;5801;50.804;12.638;2023-03-19T07:07:48;9.93;;;3.95;;
11488;SDS011;5801;50.804;12.638;2023-03-19T07:10:16;8.32;;;4.88;;
11488;SDS011;5801;50.804;12.638;2023-03-19T07:12:42;8.90;;;4.25;;
11488;SDS011;5801;50.804;12.638;2023-03-19T07:15:08;9.10;;;4.15;;
11488;SDS011;5801;50.804;12.638;2023-03-19T07:17:34;5.75;;;4.07;;
11488;SDS011;5801;50.804;12.638;2023-03-19T07:20:00;5.53;;;3.90;;
11488;SDS011;5801;50.804;12.638;2023-03-19T07:22:26;6.78;;;4.22;;
11488;SDS011;5801;50.804;12.638;2023-03-19T07:24:51;8.15;;;4.18;;
11488;SDS011;5801;50.804;12.638;2023-03-19T07:27:16;9.15;;;4.97;;
11488;SDS011;5801;50.804;12.638;2023-03-19T07:29:42;10.80;;;7.47;;
11488;SDS011;5801;50.804;12.638;2023-03-19T07:32:09;11.52;;;7.28;;
11488;SDS011;5801;50.804;12.638;2023-03-19T07:34:35;9.75;;;5.40;;
11488;SDS011;5801;50.804;12.638;2023-03-19T07:37:01;9.73;;;5.72;;
11488;SDS011;5801;50.804;12.638;2023-03-19T07:39:26;7.28;;;4.45;;
11488;SDS011;5801;50.804;12.638;2023-03-19T07:41:52;8.10;;;4.85;;
11488;SDS011;5801;50.804;12.638;2023-03-19T07:44:18;9.35;;;5.20;;
11488;SDS011;5801;50.804;12.638;2023-03-19T07:46:44;8.73;;;5.20;;
11488;SDS011;5801;50.804;12.638;2023-03-19T07:49:10;8.20;;;4.30;;
11488;SDS011;5801;50.804;12.638;2023-03-19T07:51:35;7.07;;;4.18;;
11488;SDS011;5801;50.804;12.638;2023-03-19T07:54:01;6.43;;;4.60;;
11488;SDS011;5801;50.804;12.638;2023-03-19T07:56:27;9.73;;;4.70;;
11488;SDS011;5801;50.804;12.638;2023-03-19T07:58:53;10.70;;;5.00;;
11488;SDS011;5801;50.804;12.638;2023-03-19T08:01:18;8.30;;;4.53;;
11488;SDS011;5801;50.804;12.638;2023-03-19T08:03:44;10.90;;;4.75;;
11488;SDS011;5801;50.804;12.638;2023-03-19T08:06:12;7.80;;;4.88;;
11488;SDS011;5801;50.804;12.638;2023-03-19T08:08:38;9.45;;;5.47;;
11488;SDS011;5801;50.804;12.638;2023-03-19T08:11:04;17.40;;;9.10;;
11488;SDS011;5801;50.804;12.638;2023-03-19T08:13:30;13.35;;;8.02;;
11488;SDS011;5801;50.804;12.638;2023-03-19T08:15:56;13.40;;;6.07;;
11488;SDS011;5801;50.804;12.638;2023-03-19T08:18:22;9.32;;;4.20;;
11488;SDS011;5801;50.804;12.638;2023-03-19T08:20:48;7.70;;;4.30;;
11488;SDS011;5801;50.804;12.638;2023-03-19T08:23:14;5.75;;;3.58;;
11488;SDS011;5801;50.804;12.638;2023-03-19T08:25:40;5.30;;;4.15;;
11488;SDS011;5801;50.804;12.638;2023-03-19T08:28:06;9.18;;;4.43;;
11488;SDS011;5801;50.804;12.638;2023-03-19T08:30:33;7.18;;;3.92;;
11488;SDS011;5801;50.804;12.638;2023-03-19T08:33:00;7.72;;;4.90;;
11488;SDS011;5801;50.804;12.638;2023-03-19T08:35:26;6.35;;;4.43;;
11488;SDS011;5801;50.804;12.638;2023-03-19T08:37:52;6.90;;;4.22;;
11488;SDS011;5801;50.804;12.638;2023-03-19T08:40:18;11.70;;;4.80;;
11488;SDS011;5801;50.804;12.638;2023-03-19T08:42:44;10.05;;;4.40;;
11488;SDS011;5801;50.804;12.638;2023-03-19T08:45:10;7.68;;;4.95;;
11488;SDS011;5801;50.804;12.638;2023-03-19T08:47:37;10.93;;;4.53;;
11488;SDS011;5801;50.804;12.638;2023-03-19T08:50:03;9.13;;;4.80;;
11488;SDS011;5801;50.804;12.638;2023-03-19T08:52:29;7.47;;;4.25;;
11488;SDS011;5801;50.804;12.638;2023-03-19T08:54:55;7.28;;;4.53;;
11488;SDS011;5801;50.804;12.638;2023-03-19T08:57:21;7.72;;;4.40;;
11488;SDS011;5801;50.804;12.638;2023-03-19T08:59:47;7.00;;;4.40;;
11488;SDS011;5801;50.804;12.638;2023-03-19T09:02:13;7.97;;;4.82;;
11488;SDS011;5801;50.804;12.638;2023-03-19T09:04:40;10.85;;;4.88;;
11488;SDS011;5801;50.804;12.638;2023-03-19T09:07:06;10.82;;;4.72;;
11488;SDS011;5801;50.804;12.638;2023-03-19T09:09:32;10.68;;;4.93;;
11488;SDS011;5801;50.804;12.638;2023-03-19T09:11:58;7.38;;;4.47;;
11488;SDS011;5801;50.804;12.638;2023-03-19T09:14:23;7.85;;;4.47;;
11488;SDS011;5801;50.804;12.638;2023-03-19T09:16:49;7.88;;;4.38;;
11488;SDS011;5801;50.804;12.638;2023-03-19T09:19:15;8.20;;;4.28;;
11488;SDS011;5801;50.804;12.638;2023-03-19T09:21:41;7.38;;;4.47;;
11488;SDS011;5801;50.804;12.638;2023-03-19T09:24:07;10.27;;;5.07;;
11488;SDS011;5801;50.804;12.638;2023-03-19T09:26:32;8.65;;;4.20;;
11488;SDS011;5801;50.804;12.638;2023-03-19T09:28:58;7.78;;;4.75;;
11488;SDS011;5801;50.804;12.638;2023-03-19T09:31:24;8.73;;;4.63;;
11488;SDS011;5801;50.804;12.638;2023-03-19T09:33:50;10.57;;;4.60;;
11488;SDS011;5801;50.804;12.638;2023-03-19T09:36:15;9.68;;;4.70;;
11488;SDS011;5801;50.804;12.638;2023-03-19T09:38:41;6.50;;;3.85;;
11488;SDS011;5801;50.804;12.638;2023-03-19T09:41:19;6.40;;;4.30;;
11488;SDS011;5801;50.804;12.638;2023-03-19T09:46:28;8.23;;;4.40;;
11488;SDS011;5801;50.804;12.638;2023-03-19T09:49:10;11.10;;;4.45;;
11488;SDS011;5801;50.804;12.638;2023-03-19T09:54:23;6.63;;;4.07;;
11488;SDS011;5801;50.804;12.638;2023-03-19T09:56:51;5.63;;;3.40;;
11488;SDS011;5801;50.804;12.638;2023-03-19T09:59:19;4.22;;;2.53;;
11488;SDS011;5801;50.804;12.638;2023-03-19T10:01:49;5.18;;;3.08;;
11488;SDS011;5801;50.804;12.638;2023-03-19T10:04:28;6.78;;;3.08;;
11488;SDS011;5801;50.804;12.638;2023-03-19T10:10:11;4.85;;;2.97;;
11488;SDS011;5801;50.804;12.638;2023-03-19T10:13:00;4.43;;;2.45;;
11488;SDS011;5801;50.804;12.638;2023-03-19T10:15:51;5.90;;;3.15;;
11488;SDS011;5801;50.804;12.638;2023-03-19T10:18:23;7.57;;;2.42;;
11488;SDS011;5801;50.804;12.638;2023-03-19T10:20:57;4.25;;;2.38;;
11488;SDS011;5801;50.804;12.638;2023-03-19T10:26:10;5.22;;;2.92;;
11488;SDS011;5801;50.804;12.638;2023-03-19T10:28:40;6.03;;;2.00;;
11488;SDS011;5801;50.804;12.638;2023-03-19T10:31:13;6.53;;;2.17;;
11488;SDS011;5801;50.804;12.638;2023-03-19T10:34:09;6.13;;;2.30;;
11488;SDS011;5801;50.804;12.638;2023-03-19T10:36:41;5.53;;;2.10;;
11488;SDS011;5801;50.804;12.638;2023-03-19T10:39:06;3.78;;;2.45;;
11488;SDS011;5801;50.804;12.638;2023-03-19T10:41:46;6.30;;;2.53;;
11488;SDS011;5801;50.804;12.638;2023-03-19T10:44:28;3.20;;;2.08;;
11488;SDS011;5801;50.804;12.638;2023-03-19T10:46:59;7.60;;;2.92;;
11488;SDS011;5801;50.804;12.638;2023-03-19T10:49:37;4.65;;;2.55;;
11488;SDS011;5801;50.804;12.638;2023-03-19T10:52:03;4.50;;;2.40;;
11488;SDS011;5801;50.804;12.638;2023-03-19T10:54:30;3.25;;;2.28;;
11488;SDS011;5801;50.804;12.638;2023-03-19T10:56:57;4.10;;;2.47;;
11488;SDS011;5801;50.804;12.638;2023-03-19T10:59:35;4.43;;;2.65;;
11488;SDS011;5801;50.804;12.638;2023-03-19T11:02:15;3.22;;;2.60;;
11488;SDS011;5801;50.804;12.638;2023-03-19T11:04:43;9.50;;;2.83;;
11488;SDS011;5801;50.804;12.638;2023-03-19T11:07:09;5.95;;;2.58;;
11488;SDS011;5801;50.804;12.638;2023-03-19T11:09:38;4.30;;;2.80;;
11488;SDS011;5801;50.804;12.638;2023-03-19T11:14:45;6.53;;;3.35;;
11488;SDS011;5801;50.804;12.638;2023-03-19T11:19:41;5.68;;;2.92;;
11488;SDS011;5801;50.804;12.638;2023-03-19T11:22:16;5.38;;;3.25;;
11488;SDS011;5801;50.804;12.638;2023-03-19T11:24:51;3.67;;;2.25;;
11488;SDS011;5801;50.804;12.638;2023-03-19T11:27:31;2.65;;;1.83;;
11488;SDS011;5801;50.804;12.638;2023-03-19T11:29:58;2.53;;;1.70;;
11488;SDS011;5801;50.804;12.638;2023-03-19T11:35:22;3.05;;;1.63;;
11488;SDS011;5801;50.804;12.638;2023-03-19T11:37:56;4.13;;;1.50;;
11488;SDS011;5801;50.804;12.638;2023-03-19T11:40:30;2.83;;;1.23;;
11488;SDS011;5801;50.804;12.638;2023-03-19T11:46:06;2.30;;;1.40;;
11488;SDS011;5801;50.804;12.638;2023-03-19T11:49:09;1.55;;;1.20;;
11488;SDS011;5801;50.804;12.638;2023-03-19T11:52:07;2.17;;;1.42;;
11488;SDS011;5801;50.804;12.638;2023-03-19T11:54:44;2.55;;;1.80;;
11488;SDS011;5801;50.804;12.638;2023-03-19T11:57:30;2.00;;;1.30;;
11488;SDS011;5801;50.804;12.638;2023-03-19T12:06:02;2.15;;;1.50;;
11488;SDS011;5801;50.804;12.638;2023-03-19T12:09:02;5.50;;;1.60;;
11488;SDS011;5801;50.804;12.638;2023-03-19T12:17:16;1.40;;;1.30;;
11488;SDS011;5801;50.804;12.638;2023-03-19T12:20:05;1.83;;;1.55;;
11488;SDS011;5801;50.804;12.638;2023-03-19T12:22:54;2.00;;;1.42;;
11488;SDS011;5801;50.804;12.638;2023-03-19T12:25:40;2.30;;;1.45;;
11488;SDS011;5801;50.804;12.638;2023-03-19T12:28:30;2.03;;;1.80;;
11488;SDS011;5801;50.804;12.638;2023-03-19T12:31:09;2.30;;;1.85;;
11488;SDS011;5801;50.804;12.638;2023-03-19T12:33:57;2.00;;;1.40;;
11488;SDS011;5801;50.804;12.638;2023-03-19T12:36:38;5.40;;;1.55;;
11488;SDS011;5801;50.804;12.638;2023-03-19T12:39:10;2.80;;;1.65;;
11488;SDS011;5801;50.804;12.638;2023-03-19T12:41:43;1.48;;;1.38;;
11488;SDS011;5801;50.804;12.638;2023-03-19T12:44:13;3.97;;;1.85;;
11488;SDS011;5801;50.804;12.638;2023-03-19T12:47:03;5.40;;;1.80;;
11488;SDS011;5801;50.804;12.638;2023-03-19T12:49:39;3.78;;;1.85;;
11488;SDS011;5801;50.804;12.638;2023-03-19T12:57:47;2.30;;;1.33;;
11488;SDS011;5801;50.804;12.638;2023-03-19T13:03:19;2.40;;;1.63;;
11488;SDS011;5801;50.804;12.638;2023-03-19T13:08:43;2.13;;;1.48;;
11488;SDS011;5801;50.804;12.638;2023-03-19T13:11:37;3.85;;;1.40;;
11488;SDS011;5801;50.804;12.638;2023-03-19T13:14:15;1.92;;;1.38;;
11488;SDS011;5801;50.804;12.638;2023-03-19T13:19:45;2.95;;;1.20;;
11488;SDS011;5801;50.804;12.638;2023-03-19T13:22:13;1.48;;;1.02;;
11488;SDS011;5801;50.804;12.638;2023-03-19T13:24:43;1.02;;;0.82;;
11488;SDS011;5801;50.804;12.638;2023-03-19T13:27:12;2.45;;;0.90;;
11488;SDS011;5801;50.804;12.638;2023-03-19T13:29:56;4.32;;;1.40;;
11488;SDS011;5801;50.804;12.638;2023-03-19T13:32:48;1.20;;;1.00;;
11488;SDS011;5801;50.804;12.638;2023-03-19T13:37:41;0.98;;;0.93;;
11488;SDS011;5801;50.804;12.638;2023-03-19T13:43:02;3.75;;;0.93;;
11488;SDS011;5801;50.804;12.638;2023-03-19T13:45:30;1.15;;;1.05;;
11488;SDS011;5801;50.804;12.638;2023-03-19T13:48:21;1.38;;;1.20;;
11488;SDS011;5801;50.804;12.638;2023-03-19T13:50:54;1.95;;;1.20;;
11488;SDS011;5801;50.804;12.638;2023-03-19T13:56:09;2.30;;;1.25;;
11488;SDS011;5801;50.804;12.638;2023-03-19T13:59:23;1.75;;;0.98;;
11488;SDS011;5801;50.804;12.638;2023-03-19T14:01:41;1.83;;;1.30;;
11488;SDS011;5801;50.804;12.638;2023-03-19T14:12:28;1.48;;;1.20;;
11488;SDS011;5801;50.804;12.638;2023-03-19T14:15:21;1.60;;;1.40;;
11488;SDS011;5801;50.804;12.638;2023-03-19T14:25:21;1.63;;;1.33;;
11488;SDS011;5801;50.804;12.638;2023-03-19T14:27:50;4.22;;;1.50;;
11488;SDS011;5801;50.804;12.638;2023-03-19T14:30:38;2.40;;;2.20;;
11488;SDS011;5801;50.804;12.638;2023-03-19T14:33:14;1.92;;;1.70;;
11488;SDS011;5801;50.804;12.638;2023-03-19T14:36:06;2.80;;;1.55;;
11488;SDS011;5801;50.804;12.638;2023-03-19T14:38:37;4.03;;;1.85;;
11488;SDS011;5801;50.804;12.638;2023-03-19T14:41:09;2.95;;;1.65;;
11488;SDS011;5801;50.804;12.638;2023-03-19T14:43:54;2.80;;;1.85;;
11488;SDS011;5801;50.804;12.638;2023-03-19T14:46:32;2.10;;;1.60;;
11488;SDS011;5801;50.804;12.638;2023-03-19T14:55:09;3.45;;;2.08;;
11488;SDS011;5801;50.804;12.638;2023-03-19T14:57:38;3.33;;;1.55;;
11488;SDS011;5801;50.804;12.638;2023-03-19T15:00:05;1.38;;;1.13;;
11488;SDS011;5801;50.804;12.638;2023-03-19T15:02:44;1.50;;;1.40;;
11488;SDS011;5801;50.804;12.638;2023-03-19T15:05:28;3.65;;;1.17;;
11488;SDS011;5801;50.804;12.638;2023-03-19T15:08:08;2.58;;;1.40;;
11488;SDS011;5801;50.804;12.638;2023-03-19T15:13:25;2.35;;;1.85;;
11488;SDS011;5801;50.804;12.638;2023-03-19T15:18:21;2.35;;;1.67;;
11488;SDS011;5801;50.804;12.638;2023-03-19T15:20:50;2.08;;;1.65;;
11488;SDS011;5801;50.804;12.638;2023-03-19T15:23:21;3.90;;;1.65;;
11488;SDS011;5801;50.804;12.638;2023-03-19T15:25:52;2.97;;;1.55;;
11488;SDS011;5801;50.804;12.638;2023-03-19T15:28:21;4.13;;;1.58;;
11488;SDS011;5801;50.804;12.638;2023-03-19T15:30:57;3.08;;;1.60;;
11488;SDS011;5801;50.804;12.638;2023-03-19T15:33:29;2.75;;;1.52;;
11488;SDS011;5801;50.804;12.638;2023-03-19T15:36:07;3.00;;;2.00;;
11488;SDS011;5801;50.804;12.638;2023-03-19T15:38:48;2.22;;;1.40;;
11488;SDS011;5801;50.804;12.638;2023-03-19T15:41:21;1.90;;;1.48;;
11488;SDS011;5801;50.804;12.638;2023-03-19T15:43:48;1.92;;;1.50;;
11488;SDS011;5801;50.804;12.638;2023-03-19T15:46:15;1.55;;;1.45;;
11488;SDS011;5801;50.804;12.638;2023-03-19T15:48:49;4.97;;;1.70;;
11488;SDS011;5801;50.804;12.638;2023-03-19T15:51:23;3.85;;;1.50;;
11488;SDS011;5801;50.804;12.638;2023-03-19T15:53:50;4.53;;;1.60;;
11488;SDS011;5801;50.804;12.638;2023-03-19T15:56:17;2.10;;;1.60;;
11488;SDS011;5801;50.804;12.638;2023-03-19T15:58:45;5.03;;;1.42;;
11488;SDS011;5801;50.804;12.638;2023-03-19T16:01:13;2.10;;;1.55;;
11488;SDS011;5801;50.804;12.638;2023-03-19T16:03:45;2.55;;;1.45;;
11488;SDS011;5801;50.804;12.638;2023-03-19T16:06:29;2.50;;;1.60;;
11488;SDS011;5801;50.804;12.638;2023-03-19T16:09:16;2.17;;;1.77;;
11488;SDS011;5801;50.804;12.638;2023-03-19T16:11:47;2.40;;;1.85;;
11488;SDS011;5801;50.804;12.638;2023-03-19T16:16:39;2.70;;;1.90;;
11488;SDS011;5801;50.804;12.638;2023-03-19T16:19:31;2.80;;;1.45;;
11488;SDS011;5801;50.804;12.638;2023-03-19T16:22:14;2.72;;;1.67;;
11488;SDS011;5801;50.804;12.638;2023-03-19T16:24:42;4.50;;;1.50;;
11488;SDS011;5801;50.804;12.638;2023-03-19T16:27:11;2.72;;;1.98;;